sensor_id;sensor_type;location;lat;lon;timestamp;pressure;altitude;pressure_sealevel;temperature;humidity
6096;BME280;25081;42.698;23.298;2022-08-25T00:01:14;95111.22;;;19.62;85.17
6096;BME280;25081;42.698;23.298;2022-08-25T00:03:23;95102.56;;;19.55;84.74
6096;BME280;25081;42.698;23.298;2022-08-25T00:05:34;95100.41;;;19.49;85.35
6096;BME280;25081;42.698;23.298;2022-08-25T00:07:44;95105.30;;;19.47;85.55
6096;BME280;25081;42.698;23.298;2022-08-25T00:09:55;95105.56;;;19.51;85.60
6096;BME280;25081;42.698;23.298;2022-08-25T00:12:06;95100.40;;;19.54;85.36
6096;BME280;25081;42.698;23.298;2022-08-25T00:14:19;95096.67;;;19.42;85.82
6096;BME280;25081;42.698;23.298;2022-08-25T00:16:28;95104.79;;;19.42;86.01
6096;BME280;25081;42.698;23.298;2022-08-25T00:18:39;95101.25;;;19.50;86.17
6096;BME280;25081;42.698;23.298;2022-08-25T00:20:49;95102.59;;;19.50;85.69
6096;BME280;25081;42.698;23.298;2022-08-25T00:23:00;95102.81;;;19.63;85.49
6096;BME280;25081;42.698;23.298;2022-08-25T00:25:10;95098.27;;;19.51;85.36
6096;BME280;25081;42.698;23.298;2022-08-25T00:27:21;95093.97;;;19.42;85.88
6096;BME280;25081;42.698;23.298;2022-08-25T00:29:32;95092.09;;;19.40;86.37
6096;BME280;25081;42.698;23.298;2022-08-25T00:31:43;95089.38;;;19.38;86.09
6096;BME280;25081;42.698;23.298;2022-08-25T00:33:53;95091.13;;;19.13;87.68
6096;BME280;25081;42.698;23.298;2022-08-25T00:36:05;95095.22;;;19.03;88.48
6096;BME280;25081;42.698;23.298;2022-08-25T00:38:16;95090.86;;;19.07;88.59
6096;BME280;25081;42.698;23.298;2022-08-25T00:40:26;95084.33;;;19.19;87.91
6096;BME280;25081;42.698;23.298;2022-08-25T00:42:37;95086.19;;;19.28;87.24
6096;BME280;25081;42.698;23.298;2022-08-25T00:44:48;95092.95;;;19.31;86.57
6096;BME280;25081;42.698;23.298;2022-08-25T00:46:59;95087.84;;;19.19;87.60
6096;BME280;25081;42.698;23.298;2022-08-25T00:49:10;95103.23;;;19.26;87.94
6096;BME280;25081;42.698;23.298;2022-08-25T00:51:22;95098.34;;;19.28;87.35
6096;BME280;25081;42.698;23.298;2022-08-25T00:53:31;95094.30;;;19.31;87.35
6096;BME280;25081;42.698;23.298;2022-08-25T00:55:42;95097.25;;;19.34;87.10
6096;BME280;25081;42.698;23.298;2022-08-25T00:57:54;95106.16;;;19.40;86.47
6096;BME280;25081;42.698;23.298;2022-08-25T01:00:07;95099.41;;;19.35;86.30
6096;BME280;25081;42.698;23.298;2022-08-25T01:02:16;95100.77;;;19.35;86.93
6096;BME280;25081;42.698;23.298;2022-08-25T01:04:26;95102.37;;;19.41;86.77
6096;BME280;25081;42.698;23.298;2022-08-25T01:06:38;95097.48;;;19.43;86.30
6096;BME280;25081;42.698;23.298;2022-08-25T01:08:47;95088.81;;;19.46;86.08
6096;BME280;25081;42.698;23.298;2022-08-25T01:10:59;95074.55;;;19.33;86.60
6096;BME280;25081;42.698;23.298;2022-08-25T01:13:10;95071.31;;;19.28;87.10
6096;BME280;25081;42.698;23.298;2022-08-25T01:15:20;95063.45;;;19.34;86.82
6096;BME280;25081;42.698;23.298;2022-08-25T01:17:38;95063.22;;;19.31;86.53
6096;BME280;25081;42.698;23.298;2022-08-25T01:19:45;95068.31;;;19.35;86.58
6096;BME280;25081;42.698;23.298;2022-08-25T01:21:56;95073.72;;;19.40;85.96
6096;BME280;25081;42.698;23.298;2022-08-25T01:24:07;95073.17;;;19.40;85.88
6096;BME280;25081;42.698;23.298;2022-08-25T01:26:19;95075.86;;;19.38;85.95
6096;BME280;25081;42.698;23.298;2022-08-25T01:28:29;95065.69;;;19.22;86.29
6096;BME280;25081;42.698;23.298;2022-08-25T01:30:39;95061.67;;;19.12;86.74
6096;BME280;25081;42.698;23.298;2022-08-25T01:32:50;95073.05;;;18.99;87.29
6096;BME280;25081;42.698;23.298;2022-08-25T01:35:00;95072.78;;;19.00;87.39
6096;BME280;25081;42.698;23.298;2022-08-25T01:37:12;95075.19;;;19.12;87.13
6096;BME280;25081;42.698;23.298;2022-08-25T01:39:22;95070.27;;;19.24;86.81
6096;BME280;25081;42.698;23.298;2022-08-25T01:41:35;95072.41;;;19.27;86.24
6096;BME280;25081;42.698;23.298;2022-08-25T01:43:45;95075.09;;;19.30;85.88
6096;BME280;25081;42.698;23.298;2022-08-25T01:45:56;95068.03;;;19.36;85.77
6096;BME280;25081;42.698;23.298;2022-08-25T01:48:07;95068.06;;;19.29;85.75
6096;BME280;25081;42.698;23.298;2022-08-25T01:50:18;95071.02;;;19.35;85.98
6096;BME280;25081;42.698;23.298;2022-08-25T01:52:31;95071.59;;;19.32;85.70
6096;BME280;25081;42.698;23.298;2022-08-25T01:54:40;95066.73;;;19.31;85.54
6096;BME280;25081;42.698;23.298;2022-08-25T01:56:51;95072.67;;;19.31;85.18
6096;BME280;25081;42.698;23.298;2022-08-25T01:59:01;94923.15;;;18.24;85.54
6096;BME280;25081;42.698;23.298;2022-08-25T02:01:14;95072.41;;;19.27;85.83
6096;BME280;25081;42.698;23.298;2022-08-25T02:03:23;95074.57;;;19.30;85.28
6096;BME280;25081;42.698;23.298;2022-08-25T02:05:34;95074.83;;;19.29;85.46
6096;BME280;25081;42.698;23.298;2022-08-25T02:07:44;95075.38;;;19.31;85.86
6096;BME280;25081;42.698;23.298;2022-08-25T02:09:55;95068.30;;;19.40;85.53
6096;BME280;25081;42.698;23.298;2022-08-25T02:12:06;95065.54;;;19.48;85.16
6096;BME280;25081;42.698;23.298;2022-08-25T02:14:17;95070.15;;;19.50;84.51
6096;BME280;25081;42.698;23.298;2022-08-25T02:16:28;95072.89;;;19.42;84.21
6096;BME280;25081;42.698;23.298;2022-08-25T02:18:38;95067.27;;;19.31;84.59
6096;BME280;25081;42.698;23.298;2022-08-25T02:20:49;95057.52;;;19.30;84.62
6096;BME280;25081;42.698;23.298;2022-08-25T02:22:59;95062.13;;;19.32;84.79
6096;BME280;25081;42.698;23.298;2022-08-25T02:25:10;95063.45;;;19.34;84.65
6096;BME280;25081;42.698;23.298;2022-08-25T02:27:22;95057.77;;;19.36;84.89
6096;BME280;25081;42.698;23.298;2022-08-25T02:29:32;95056.67;;;19.37;84.35
6096;BME280;25081;42.698;23.298;2022-08-25T02:31:43;95054.25;;;19.35;84.29
6096;BME280;25081;42.698;23.298;2022-08-25T02:33:53;95054.54;;;19.34;84.32
6096;BME280;25081;42.698;23.298;2022-08-25T02:36:05;95054.83;;;19.27;84.41
6096;BME280;25081;42.698;23.298;2022-08-25T02:38:16;95062.67;;;19.31;84.56
6096;BME280;25081;42.698;23.298;2022-08-25T02:40:27;95058.61;;;19.31;84.18
6096;BME280;25081;42.698;23.298;2022-08-25T02:42:38;95059.16;;;19.31;84.65
6096;BME280;25081;42.698;23.298;2022-08-25T02:44:49;95061.09;;;19.18;84.66
6096;BME280;25081;42.698;23.298;2022-08-25T02:46:59;95056.25;;;19.14;85.34
6096;BME280;25081;42.698;23.298;2022-08-25T02:49:10;95058.64;;;19.24;84.92
6096;BME280;25081;42.698;23.298;2022-08-25T02:51:21;95056.22;;;19.20;84.96
6096;BME280;25081;42.698;23.298;2022-08-25T02:53:32;95055.13;;;19.23;85.01
6096;BME280;25081;42.698;23.298;2022-08-25T02:55:42;95058.94;;;19.17;84.85
6096;BME280;25081;42.698;23.298;2022-08-25T02:57:53;95053.51;;;19.20;85.20
6096;BME280;25081;42.698;23.298;2022-08-25T03:00:05;95067.02;;;19.25;84.92
6096;BME280;25081;42.698;23.298;2022-08-25T03:02:16;95070.27;;;19.19;85.01
6096;BME280;25081;42.698;23.298;2022-08-25T03:04:27;95069.20;;;19.23;84.85
6096;BME280;25081;42.698;23.298;2022-08-25T03:06:38;95072.43;;;19.20;84.72
6096;BME280;25081;42.698;23.298;2022-08-25T03:08:49;95077.83;;;19.25;84.92
6096;BME280;25081;42.698;23.298;2022-08-25T03:10:59;95077.58;;;19.19;85.01
6096;BME280;25081;42.698;23.298;2022-08-25T03:13:10;95075.17;;;19.14;85.12
6096;BME280;25081;42.698;23.298;2022-08-25T03:15:21;95074.89;;;19.16;85.46
6096;BME280;25081;42.698;23.298;2022-08-25T03:17:31;95066.50;;;19.18;85.06
6096;BME280;25081;42.698;23.298;2022-08-25T03:19:42;95064.36;;;19.14;85.37
6096;BME280;25081;42.698;23.298;2022-08-25T03:21:53;95064.06;;;19.19;85.85
6096;BME280;25081;42.698;23.298;2022-08-25T03:24:04;95061.33;;;19.26;85.20
6096;BME280;25081;42.698;23.298;2022-08-25T03:26:15;95061.61;;;19.25;84.85
6096;BME280;25081;42.698;23.298;2022-08-25T03:28:43;95067.84;;;19.23;85.04
6096;BME280;25081;42.698;23.298;2022-08-25T03:30:54;95074.58;;;19.25;84.90
6096;BME280;25081;42.698;23.298;2022-08-25T03:33:05;95066.50;;;19.18;85.02
6096;BME280;25081;42.698;23.298;2022-08-25T03:35:16;95068.93;;;19.22;85.05
6096;BME280;25081;42.698;23.298;2022-08-25T03:37:27;95071.88;;;19.25;84.67
6096;BME280;25081;42.698;23.298;2022-08-25T03:39:37;95074.38;;;19.11;85.35
6096;BME280;25081;42.698;23.298;2022-08-25T03:41:48;95077.61;;;19.13;85.17
6096;BME280;25081;42.698;23.298;2022-08-25T03:43:59;95077.30;;;19.20;85.12
6096;BME280;25081;42.698;23.298;2022-08-25T03:46:14;95072.72;;;19.21;84.72
6096;BME280;25081;42.698;23.298;2022-08-25T03:48:20;95070.31;;;19.14;85.21
6096;BME280;25081;42.698;23.298;2022-08-25T03:50:31;95070.86;;;19.08;85.29
6096;BME280;25081;42.698;23.298;2022-08-25T03:52:42;95065.95;;;19.23;85.15
6096;BME280;25081;42.698;23.298;2022-08-25T03:54:53;95067.81;;;19.30;84.56
6096;BME280;25081;42.698;23.298;2022-08-25T03:57:04;95067.49;;;19.37;84.40
6096;BME280;25081;42.698;23.298;2022-08-25T03:59:15;95067.48;;;19.42;84.17
6096;BME280;25081;42.698;23.298;2022-08-25T04:01:26;95071.28;;;19.36;84.21
6096;BME280;25081;42.698;23.298;2022-08-25T04:03:36;95068.61;;;19.28;84.56
6096;BME280;25081;42.698;23.298;2022-08-25T04:05:47;95055.94;;;19.24;84.90
6096;BME280;25081;42.698;23.298;2022-08-25T04:07:57;95061.58;;;19.32;84.75
6096;BME280;25081;42.698;23.298;2022-08-25T04:10:09;95056.45;;;19.28;84.49
6096;BME280;25081;42.698;23.298;2022-08-25T04:12:20;95058.39;;;19.18;84.76
6096;BME280;25081;42.698;23.298;2022-08-25T04:14:30;95054.90;;;19.14;84.85
6096;BME280;25081;42.698;23.298;2022-08-25T04:16:41;95059.48;;;19.16;84.68
6096;BME280;25081;42.698;23.298;2022-08-25T04:18:52;95066.23;;;19.22;84.33
6096;BME280;25081;42.698;23.298;2022-08-25T04:21:03;95069.70;;;19.27;84.24
6096;BME280;25081;42.698;23.298;2022-08-25T04:23:13;95070.73;;;19.36;83.97
6096;BME280;25081;42.698;23.298;2022-08-25T04:25:24;95066.65;;;19.44;83.51
6096;BME280;25081;42.698;23.298;2022-08-25T04:27:34;95067.40;;;19.55;83.11
6096;BME280;25081;42.698;23.298;2022-08-25T04:29:45;95064.12;;;19.65;82.49
6096;BME280;25081;42.698;23.298;2022-08-25T04:31:56;95062.98;;;19.74;82.12
6096;BME280;25081;42.698;23.298;2022-08-25T04:34:06;95053.19;;;19.83;81.57
6096;BME280;25081;42.698;23.298;2022-08-25T04:36:17;95049.65;;;19.85;81.45
6096;BME280;25081;42.698;23.298;2022-08-25T04:38:28;95048.55;;;19.86;81.46
6096;BME280;25081;42.698;23.298;2022-08-25T04:40:38;95050.45;;;19.86;81.20
6096;BME280;25081;42.698;23.298;2022-08-25T04:42:49;95054.23;;;19.90;81.04
6096;BME280;25081;42.698;23.298;2022-08-25T04:45:00;95060.38;;;20.00;80.44
6096;BME280;25081;42.698;23.298;2022-08-25T04:47:11;94924.86;;;19.19;79.64
6096;BME280;25081;42.698;23.298;2022-08-25T04:49:21;95061.59;;;20.16;80.01
6096;BME280;25081;42.698;23.298;2022-08-25T04:51:33;95066.45;;;20.16;79.46
6096;BME280;25081;42.698;23.298;2022-08-25T04:53:43;95069.33;;;20.30;79.11
6096;BME280;25081;42.698;23.298;2022-08-25T04:55:54;95074.14;;;20.38;78.75
6096;BME280;25081;42.698;23.298;2022-08-25T04:58:04;95078.23;;;20.65;78.44
6096;BME280;25081;42.698;23.298;2022-08-25T05:00:17;95073.27;;;20.74;77.11
6096;BME280;25081;42.698;23.298;2022-08-25T05:02:28;95072.16;;;21.02;76.73
6096;BME280;25081;42.698;23.298;2022-08-25T05:04:39;95070.50;;;21.30;75.57
6096;BME280;25081;42.698;23.298;2022-08-25T05:06:49;95070.41;;;21.37;74.93
6096;BME280;25081;42.698;23.298;2022-08-25T05:09:00;95066.59;;;21.38;74.79
6096;BME280;25081;42.698;23.298;2022-08-25T05:11:11;95073.81;;;21.24;74.48
6096;BME280;25081;42.698;23.298;2022-08-25T05:13:22;95075.70;;;21.48;74.08
6096;BME280;25081;42.698;23.298;2022-08-25T05:15:32;95074.56;;;21.91;72.49
6096;BME280;25081;42.698;23.298;2022-08-25T05:18:01;95066.02;;;21.82;72.46
6096;BME280;25081;42.698;23.298;2022-08-25T05:20:12;95061.84;;;21.49;72.91
6096;BME280;25081;42.698;23.298;2022-08-25T05:22:23;95064.73;;;21.36;73.96
6096;BME280;25081;42.698;23.298;2022-08-25T05:24:33;95058.95;;;21.19;74.29
6096;BME280;25081;42.698;23.298;2022-08-25T05:26:44;95062.29;;;21.11;74.82
6096;BME280;25081;42.698;23.298;2022-08-25T05:28:55;95085.20;;;21.24;75.04
6096;BME280;25081;42.698;23.298;2022-08-25T05:31:07;95053.39;;;21.08;75.24
6096;BME280;25081;42.698;23.298;2022-08-25T05:33:17;95054.63;;;21.18;74.71
6096;BME280;25081;42.698;23.298;2022-08-25T05:35:28;95054.44;;;21.36;74.63
6096;BME280;25081;42.698;23.298;2022-08-25T05:37:38;95055.95;;;21.45;74.04
6096;BME280;25081;42.698;23.298;2022-08-25T05:39:49;95059.77;;;21.43;73.63
6096;BME280;25081;42.698;23.298;2022-08-25T05:41:59;95058.78;;;21.56;73.40
6096;BME280;25081;42.698;23.298;2022-08-25T05:44:10;95065.08;;;21.70;73.56
6096;BME280;25081;42.698;23.298;2022-08-25T05:46:21;95064.30;;;22.05;72.01
6096;BME280;25081;42.698;23.298;2022-08-25T05:48:32;95059.09;;;22.43;70.96
6096;BME280;25081;42.698;23.298;2022-08-25T05:50:43;95062.73;;;22.69;69.76
6096;BME280;25081;42.698;23.298;2022-08-25T05:52:53;95054.08;;;22.80;69.44
6096;BME280;25081;42.698;23.298;2022-08-25T05:55:05;95052.11;;;23.00;68.95
6096;BME280;25081;42.698;23.298;2022-08-25T05:57:15;95058.44;;;22.95;68.75
6096;BME280;25081;42.698;23.298;2022-08-25T05:59:26;95059.52;;;23.10;68.62
6096;BME280;25081;42.698;23.298;2022-08-25T06:01:37;95055.73;;;23.09;68.15
6096;BME280;25081;42.698;23.298;2022-08-25T06:04:05;95059.80;;;23.23;67.81
6096;BME280;25081;42.698;23.298;2022-08-25T06:06:16;95059.09;;;23.31;67.68
6096;BME280;25081;42.698;23.298;2022-08-25T06:08:26;95061.45;;;23.35;67.20
6096;BME280;25081;42.698;23.298;2022-08-25T06:10:37;95058.39;;;23.39;67.01
6096;BME280;25081;42.698;23.298;2022-08-25T06:12:48;95054.48;;;23.56;66.33
6096;BME280;25081;42.698;23.298;2022-08-25T06:14:58;95058.91;;;23.52;66.17
6096;BME280;25081;42.698;23.298;2022-08-25T06:17:09;95059.20;;;23.78;65.89
6096;BME280;25081;42.698;23.298;2022-08-25T06:19:20;95070.58;;;24.16;64.95
6096;BME280;25081;42.698;23.298;2022-08-25T06:21:31;95062.36;;;24.41;63.61
6096;BME280;25081;42.698;23.298;2022-08-25T06:23:41;95057.53;;;24.38;63.42
6096;BME280;25081;42.698;23.298;2022-08-25T06:25:52;95056.36;;;24.53;63.49
6096;BME280;25081;42.698;23.298;2022-08-25T06:28:03;95053.03;;;24.76;62.54
6096;BME280;25081;42.698;23.298;2022-08-25T06:30:16;95047.75;;;24.99;61.74
6096;BME280;25081;42.698;23.298;2022-08-25T06:32:25;95050.70;;;25.03;62.04
6096;BME280;25081;42.698;23.298;2022-08-25T06:34:36;95041.21;;;24.89;61.57
6096;BME280;25081;42.698;23.298;2022-08-25T06:36:47;95050.06;;;25.06;61.72
6096;BME280;25081;42.698;23.298;2022-08-25T06:38:57;95057.87;;;25.58;59.99
6096;BME280;25081;42.698;23.298;2022-08-25T06:41:08;95058.27;;;26.09;58.61
6096;BME280;25081;42.698;23.298;2022-08-25T06:43:20;95049.47;;;25.75;59.14
6096;BME280;25081;42.698;23.298;2022-08-25T06:45:30;95051.66;;;26.01;58.81
6096;BME280;25081;42.698;23.298;2022-08-25T06:47:41;95052.70;;;26.03;57.87
6096;BME280;25081;42.698;23.298;2022-08-25T06:49:52;95051.52;;;26.73;56.74
6096;BME280;25081;42.698;23.298;2022-08-25T06:52:03;95053.85;;;27.98;53.66
6096;BME280;25081;42.698;23.298;2022-08-25T06:54:14;95051.95;;;28.25;51.81
6096;BME280;25081;42.698;23.298;2022-08-25T06:56:25;95039.63;;;28.04;51.85
6096;BME280;25081;42.698;23.298;2022-08-25T06:58:35;95036.25;;;28.13;52.07
6096;BME280;25081;42.698;23.298;2022-08-25T07:00:46;95046.42;;;29.00;49.80
6096;BME280;25081;42.698;23.298;2022-08-25T07:02:57;95038.16;;;29.98;47.16
6096;BME280;25081;42.698;23.298;2022-08-25T07:05:08;95044.96;;;30.62;45.64
6096;BME280;25081;42.698;23.298;2022-08-25T07:07:19;95045.41;;;31.87;42.43
6096;BME280;25081;42.698;23.298;2022-08-25T07:09:30;95048.27;;;31.12;43.76
6096;BME280;25081;42.698;23.298;2022-08-25T07:11:41;95046.87;;;30.40;45.02
6096;BME280;25081;42.698;23.298;2022-08-25T07:13:52;95041.39;;;29.81;47.47
6096;BME280;25081;42.698;23.298;2022-08-25T07:16:03;95038.59;;;30.18;46.37
6096;BME280;25081;42.698;23.298;2022-08-25T07:18:13;95034.19;;;30.85;44.45
6096;BME280;25081;42.698;23.298;2022-08-25T07:20:24;95030.72;;;31.83;42.15
6096;BME280;25081;42.698;23.298;2022-08-25T07:22:34;95037.40;;;32.27;41.20
6096;BME280;25081;42.698;23.298;2022-08-25T07:24:45;95035.62;;;32.34;40.84
6096;BME280;25081;42.698;23.298;2022-08-25T07:26:56;95035.80;;;31.24;42.62
6096;BME280;25081;42.698;23.298;2022-08-25T07:29:07;95047.07;;;31.19;43.12
6096;BME280;25081;42.698;23.298;2022-08-25T07:31:17;95035.09;;;29.81;45.76
6096;BME280;25081;42.698;23.298;2022-08-25T07:33:28;95034.89;;;30.60;44.62
6096;BME280;25081;42.698;23.298;2022-08-25T07:35:38;95040.14;;;31.09;43.04
6096;BME280;25081;42.698;23.298;2022-08-25T07:37:49;95034.08;;;31.03;42.81
6096;BME280;25081;42.698;23.298;2022-08-25T07:40:02;95031.73;;;30.06;45.27
6096;BME280;25081;42.698;23.298;2022-08-25T07:42:13;95042.57;;;29.74;46.21
6096;BME280;25081;42.698;23.298;2022-08-25T07:44:24;95035.09;;;29.81;45.32
6096;BME280;25081;42.698;23.298;2022-08-25T07:46:34;95037.03;;;29.01;47.35
6096;BME280;25081;42.698;23.298;2022-08-25T07:48:45;95040.13;;;28.12;49.71
6096;BME280;25081;42.698;23.298;2022-08-25T07:50:55;95043.77;;;27.60;51.29
6096;BME280;25081;42.698;23.298;2022-08-25T07:53:06;95053.55;;;27.25;52.13
6096;BME280;25081;42.698;23.298;2022-08-25T07:55:17;95053.50;;;26.87;53.39
6096;BME280;25081;42.698;23.298;2022-08-25T07:57:27;95051.12;;;26.77;53.75
6096;BME280;25081;42.698;23.298;2022-08-25T07:59:40;95048.46;;;26.83;54.29
6096;BME280;25081;42.698;23.298;2022-08-25T08:01:51;95043.61;;;28.01;50.57
6096;BME280;25081;42.698;23.298;2022-08-25T08:04:02;95040.00;;;28.90;48.26
6096;BME280;25081;42.698;23.298;2022-08-25T08:06:13;95042.34;;;28.79;48.61
6096;BME280;25081;42.698;23.298;2022-08-25T08:08:23;95040.80;;;28.63;48.85
6096;BME280;25081;42.698;23.298;2022-08-25T08:10:34;95037.72;;;28.59;49.61
6096;BME280;25081;42.698;23.298;2022-08-25T08:12:45;95034.42;;;29.72;47.37
6096;BME280;25081;42.698;23.298;2022-08-25T08:14:56;95032.58;;;30.62;45.11
6096;BME280;25081;42.698;23.298;2022-08-25T08:17:07;95030.36;;;30.40;45.42
6096;BME280;25081;42.698;23.298;2022-08-25T08:19:18;95025.52;;;29.44;46.65
6096;BME280;25081;42.698;23.298;2022-08-25T08:21:29;95023.41;;;29.04;48.14
6096;BME280;25081;42.698;23.298;2022-08-25T08:23:39;95024.48;;;28.73;49.21
6096;BME280;25081;42.698;23.298;2022-08-25T08:25:49;95021.75;;;27.92;51.57
6096;BME280;25081;42.698;23.298;2022-08-25T08:28:00;95019.20;;;27.87;51.86
6096;BME280;25081;42.698;23.298;2022-08-25T08:30:13;95016.03;;;27.70;52.36
6096;BME280;25081;42.698;23.298;2022-08-25T08:32:24;95020.61;;;27.43;53.19
6096;BME280;25081;42.698;23.298;2022-08-25T08:34:34;95017.89;;;27.49;52.96
6096;BME280;25081;42.698;23.298;2022-08-25T08:36:45;95017.38;;;27.55;52.63
6096;BME280;25081;42.698;23.298;2022-08-25T08:38:55;95007.84;;;28.24;50.61
6096;BME280;25081;42.698;23.298;2022-08-25T08:41:13;95003.19;;;29.27;47.84
6096;BME280;25081;42.698;23.298;2022-08-25T08:46:17;95004.78;;;29.22;47.14
6096;BME280;25081;42.698;23.298;2022-08-25T08:48:45;95006.97;;;28.59;48.90
6096;BME280;25081;42.698;23.298;2022-08-25T08:50:59;95008.79;;;27.80;50.92
6096;BME280;25081;42.698;23.298;2022-08-25T08:53:09;95002.20;;;28.35;50.34
6096;BME280;25081;42.698;23.298;2022-08-25T08:55:22;94999.36;;;29.81;45.76
6096;BME280;25081;42.698;23.298;2022-08-25T08:57:30;95005.80;;;30.47;44.86
6096;BME280;25081;42.698;23.298;2022-08-25T08:59:44;94996.39;;;30.76;43.80
6096;BME280;25081;42.698;23.298;2022-08-25T09:01:54;95000.01;;;30.58;44.43
6096;BME280;25081;42.698;23.298;2022-08-25T09:04:08;94994.57;;;29.72;46.08
6096;BME280;25081;42.698;23.298;2022-08-25T09:06:21;94993.80;;;29.28;45.99
6096;BME280;25081;42.698;23.298;2022-08-25T09:08:30;95000.89;;;29.11;46.40
6096;BME280;25081;42.698;23.298;2022-08-25T09:10:44;95001.28;;;28.37;47.25
6096;BME280;25081;42.698;23.298;2022-08-25T09:12:57;95001.95;;;27.51;49.56
6096;BME280;25081;42.698;23.298;2022-08-25T09:15:12;94997.12;;;27.48;49.95
6096;BME280;25081;42.698;23.298;2022-08-25T09:17:22;94994.76;;;27.88;48.38
6096;BME280;25081;42.698;23.298;2022-08-25T09:19:47;94998.50;;;26.71;51.55
6096;BME280;25081;42.698;23.298;2022-08-25T09:21:58;95004.97;;;25.83;53.38
6096;BME280;25081;42.698;23.298;2022-08-25T09:24:20;94999.66;;;26.12;52.58
6096;BME280;25081;42.698;23.298;2022-08-25T09:26:31;94999.03;;;26.65;50.22
6096;BME280;25081;42.698;23.298;2022-08-25T09:28:42;95000.78;;;26.11;51.64
6096;BME280;25081;42.698;23.298;2022-08-25T09:30:52;94997.27;;;25.30;54.18
6096;BME280;25081;42.698;23.298;2022-08-25T09:33:02;94995.96;;;25.19;53.67
6096;BME280;25081;42.698;23.298;2022-08-25T09:35:15;94992.64;;;25.11;52.06
6096;BME280;25081;42.698;23.298;2022-08-25T09:37:25;94992.44;;;26.08;50.85
6096;BME280;25081;42.698;23.298;2022-08-25T09:39:35;94995.00;;;27.09;48.59
6096;BME280;25081;42.698;23.298;2022-08-25T09:41:46;94988.41;;;27.90;47.03
6096;BME280;25081;42.698;23.298;2022-08-25T09:43:57;94977.31;;;28.46;42.17
6096;BME280;25081;42.698;23.298;2022-08-25T09:46:11;94975.20;;;28.70;41.72
6096;BME280;25081;42.698;23.298;2022-08-25T09:48:23;94974.78;;;28.87;41.10
6096;BME280;25081;42.698;23.298;2022-08-25T09:50:33;94977.84;;;27.80;46.20
6096;BME280;25081;42.698;23.298;2022-08-25T09:52:44;94979.17;;;28.48;44.30
6096;BME280;25081;42.698;23.298;2022-08-25T09:54:55;94976.98;;;29.36;41.12
6096;BME280;25081;42.698;23.298;2022-08-25T09:57:05;94982.90;;;27.69;44.17
6096;BME280;25081;42.698;23.298;2022-08-25T09:59:21;94985.32;;;27.91;43.84
6096;BME280;25081;42.698;23.298;2022-08-25T10:01:30;94979.49;;;26.98;45.88
6096;BME280;25081;42.698;23.298;2022-08-25T10:03:58;94985.73;;;26.69;46.37
6096;BME280;25081;42.698;23.298;2022-08-25T10:06:10;94987.14;;;27.58;44.41
6096;BME280;25081;42.698;23.298;2022-08-25T10:08:25;94988.03;;;26.97;46.19
6096;BME280;25081;42.698;23.298;2022-08-25T10:10:37;94990.40;;;26.28;47.96
6096;BME280;25081;42.698;23.298;2022-08-25T10:12:46;94978.32;;;26.70;46.26
6096;BME280;25081;42.698;23.298;2022-08-25T10:14:57;94986.55;;;26.38;46.01
6096;BME280;25081;42.698;23.298;2022-08-25T10:17:16;94982.70;;;26.04;47.46
6096;BME280;25081;42.698;23.298;2022-08-25T10:19:27;94979.58;;;26.58;45.50
6096;BME280;25081;42.698;23.298;2022-08-25T10:21:37;94972.70;;;27.13;44.97
6096;BME280;25081;42.698;23.298;2022-08-25T10:23:48;94981.29;;;27.89;43.37
6096;BME280;25081;42.698;23.298;2022-08-25T10:25:59;94973.81;;;28.64;40.70
6096;BME280;25081;42.698;23.298;2022-08-25T10:28:10;94972.03;;;28.87;40.55
6096;BME280;25081;42.698;23.298;2022-08-25T10:30:21;94981.06;;;28.09;41.94
6096;BME280;25081;42.698;23.298;2022-08-25T10:32:36;94968.08;;;29.15;40.42
6096;BME280;25081;42.698;23.298;2022-08-25T10:34:46;94966.55;;;30.12;37.24
6096;BME280;25081;42.698;23.298;2022-08-25T10:37:00;94962.42;;;29.60;36.77
6096;BME280;25081;42.698;23.298;2022-08-25T10:39:10;94957.85;;;29.52;37.42
6096;BME280;25081;42.698;23.298;2022-08-25T10:41:37;94964.50;;;29.63;37.31
6096;BME280;25081;42.698;23.298;2022-08-25T10:43:48;94956.22;;;30.09;37.02
6096;BME280;25081;42.698;23.298;2022-08-25T10:46:00;94952.58;;;29.41;37.86
6096;BME280;25081;42.698;23.298;2022-08-25T10:48:15;94956.81;;;30.03;37.39
6096;BME280;25081;42.698;23.298;2022-08-25T10:50:27;94950.57;;;30.40;36.41
6096;BME280;25081;42.698;23.298;2022-08-25T10:52:52;94949.33;;;30.15;37.06
6096;BME280;25081;42.698;23.298;2022-08-25T10:54:52;94946.25;;;29.71;37.24
6096;BME280;25081;42.698;23.298;2022-08-25T10:57:03;94944.38;;;29.16;38.15
6096;BME280;25081;42.698;23.298;2022-08-25T10:59:28;94945.04;;;29.44;38.86
6096;BME280;25081;42.698;23.298;2022-08-25T11:01:46;94954.56;;;29.16;38.83
6096;BME280;25081;42.698;23.298;2022-08-25T11:03:56;94953.41;;;29.11;38.59
6096;BME280;25081;42.698;23.298;2022-08-25T11:06:08;94945.61;;;28.88;38.99
6096;BME280;25081;42.698;23.298;2022-08-25T11:08:18;94941.98;;;29.15;39.11
6096;BME280;25081;42.698;23.298;2022-08-25T11:10:30;94936.55;;;28.63;39.53
6096;BME280;25081;42.698;23.298;2022-08-25T11:12:41;94932.67;;;28.70;40.03
6096;BME280;25081;42.698;23.298;2022-08-25T11:14:51;94942.85;;;28.82;40.33
6096;BME280;25081;42.698;23.298;2022-08-25T11:17:03;94938.49;;;27.70;41.84
6096;BME280;25081;42.698;23.298;2022-08-25T11:19:15;94927.00;;;28.36;40.68
6096;BME280;25081;42.698;23.298;2022-08-25T11:21:26;94933.53;;;28.95;39.94
6096;BME280;25081;42.698;23.298;2022-08-25T11:23:37;94925.23;;;28.83;38.87
6096;BME280;25081;42.698;23.298;2022-08-25T11:25:48;94922.27;;;28.24;40.84
6096;BME280;25081;42.698;23.298;2022-08-25T11:27:59;94922.81;;;28.12;40.96
6096;BME280;25081;42.698;23.298;2022-08-25T11:30:11;94924.30;;;27.82;41.32
6096;BME280;25081;42.698;23.298;2022-08-25T11:32:20;94914.04;;;28.24;41.13
6096;BME280;25081;42.698;23.298;2022-08-25T11:34:33;94908.20;;;27.81;42.04
6096;BME280;25081;42.698;23.298;2022-08-25T11:36:47;94904.09;;;27.87;41.60
6096;BME280;25081;42.698;23.298;2022-08-25T11:38:56;94918.69;;;26.93;43.13